Metar z połowy godziny Komunikat METAR ze strony awiacja.imgw.pl Metar G30 EPPR METAR EPPR 221430Z 27012KT 9999 BKN040 18/05 Q1013 RMK 182 043 4/4=